createdAt,value
2022-09-11T00:00:50.470Z,59.67
2022-09-11T00:01:52.792Z,59.73
2022-09-11T00:02:55.136Z,60.08
2022-09-11T00:03:57.640Z,59.86
2022-09-11T00:04:59.788Z,60.01
2022-09-11T00:06:07.853Z,60.21
2022-09-11T00:07:10.076Z,60.14
2022-09-11T00:08:14.723Z,60.13
2022-09-11T00:09:16.862Z,59.80
2022-09-11T00:10:19.156Z,60.12
2022-09-11T00:11:22.727Z,60.05
2022-09-11T00:12:24.857Z,60.19
2022-09-11T00:13:27.032Z,59.95
2022-09-11T00:14:29.782Z,60.08
2022-09-11T00:15:37.010Z,59.95
2022-09-11T00:16:41.637Z,60.21
2022-09-11T00:17:43.779Z,60.17
2022-09-11T00:18:46.945Z,60.21
2022-09-11T00:19:49.106Z,59.90
2022-09-11T00:20:56.589Z,60.22
2022-09-11T00:21:58.692Z,60.34
2022-09-11T00:23:04.021Z,59.95
2022-09-11T00:24:08.963Z,60.31
2022-09-11T00:25:11.094Z,59.99
2022-09-11T00:26:13.226Z,59.96
2022-09-11T00:27:16.524Z,60.23
2022-09-11T00:28:22.217Z,60.00
2022-09-11T00:29:24.460Z,60.42
2022-09-11T00:30:27.214Z,60.32
2022-09-11T00:31:30.560Z,60.46
2022-09-11T00:32:33.833Z,60.32
2022-09-11T00:33:36.320Z,60.05
2022-09-11T00:34:39.299Z,60.43
2022-09-11T00:35:42.362Z,60.40
2022-09-11T00:36:44.654Z,60.45
2022-09-11T00:37:48.399Z,60.35
2022-09-11T00:38:53.850Z,60.45
2022-09-11T00:39:56.033Z,60.15
2022-09-11T00:41:02.217Z,60.62
2022-09-11T00:42:05.514Z,60.28
2022-09-11T00:43:10.111Z,60.22
2022-09-11T00:44:12.957Z,60.23
2022-09-11T00:45:25.845Z,60.16
2022-09-11T00:46:59.365Z,60.24
2022-09-11T00:48:02.085Z,60.24
2022-09-11T00:49:12.211Z,60.33
2022-09-11T00:50:19.652Z,60.46
2022-09-11T00:51:25.673Z,60.69
2022-09-11T00:52:33.297Z,60.35
2022-09-11T00:53:37.892Z,60.62
2022-09-11T00:55:06.606Z,60.18
2022-09-11T00:56:11.066Z,60.60
2022-09-11T00:57:13.415Z,60.65
2022-09-11T00:58:21.345Z,60.64
2022-09-11T00:59:27.865Z,60.63
2022-09-11T01:00:30.239Z,60.74
2022-09-11T01:01:33.432Z,60.54
2022-09-11T01:02:38.670Z,60.66
2022-09-11T01:03:42.424Z,60.61
2022-09-11T01:04:45.514Z,60.88
2022-09-11T01:05:48.382Z,60.86
2022-09-11T01:06:54.867Z,60.86
2022-09-11T01:07:57.015Z,60.62
2022-09-11T01:08:59.407Z,60.76
2022-09-11T01:10:03.751Z,61.05
2022-09-11T01:11:34.128Z,60.85
2022-09-11T01:12:47.801Z,61.04
2022-09-11T01:13:55.839Z,60.71
2022-09-11T01:15:04.046Z,61.04
2022-09-11T01:16:39.544Z,60.85
2022-09-11T01:18:11.326Z,60.95
2022-09-11T01:19:47.824Z,60.99
2022-09-11T01:21:02.159Z,60.58
2022-09-11T01:22:28.603Z,60.56
2022-09-11T01:23:55.457Z,61.00
2022-09-11T01:25:17.514Z,61.06
2022-09-11T01:26:42.710Z,60.95
2022-09-11T01:27:50.368Z,61.13
2022-09-11T01:28:59.993Z,61.05
2022-09-11T01:30:24.624Z,61.00
2022-09-11T01:31:36.610Z,61.44
2022-09-11T01:33:23.037Z,61.17
2022-09-11T01:34:42.869Z,61.04
2022-09-11T01:35:55.714Z,61.48
2022-09-11T01:37:04.469Z,61.53
2022-09-11T01:38:15.627Z,61.46
2022-09-11T01:39:23.164Z,61.69
2022-09-11T01:40:36.896Z,61.48
2022-09-11T01:41:47.464Z,61.32
2022-09-11T01:42:55.680Z,61.55
2022-09-11T01:44:07.192Z,61.53
2022-09-11T01:45:12.834Z,61.81
2022-09-11T01:46:23.360Z,61.54
2022-09-11T01:47:29.101Z,61.60
2022-09-11T01:48:44.019Z,61.73
2022-09-11T01:49:51.993Z,61.85
2022-09-11T01:51:00.096Z,61.85
2022-09-11T01:52:15.325Z,61.94
2022-09-11T01:53:22.329Z,61.90
2022-09-11T01:54:31.195Z,62.03
2022-09-11T01:55:50.115Z,61.83
2022-09-11T01:57:02.366Z,62.27
2022-09-11T01:58:11.172Z,62.44
2022-09-11T01:59:24.284Z,62.36
2022-09-11T02:00:30.188Z,62.30
2022-09-11T02:01:35.885Z,62.27
2022-09-11T02:02:53.772Z,62.32
2022-09-11T02:04:07.263Z,62.55
2022-09-11T02:05:23.439Z,62.46
2022-09-11T02:06:33.725Z,62.41
2022-09-11T02:07:43.864Z,62.36
2022-09-11T02:09:02.704Z,62.45
2022-09-11T02:10:15.352Z,62.43
2022-09-11T02:11:18.620Z,62.68
2022-09-11T02:12:27.229Z,62.55
2022-09-11T02:13:55.350Z,62.61
2022-09-11T02:14:57.735Z,62.91
2022-09-11T02:16:13.004Z,62.83
2022-09-11T02:17:43.316Z,62.50
2022-09-11T02:19:09.327Z,62.50
2022-09-11T02:20:11.584Z,62.69
2022-09-11T02:21:13.776Z,62.58
2022-09-11T02:22:15.976Z,62.65
2022-09-11T02:23:18.473Z,62.78
2022-09-11T02:24:23.215Z,62.74
2022-09-11T02:25:25.512Z,63.05
2022-09-11T02:26:35.146Z,62.93
2022-09-11T02:27:37.383Z,62.89
2022-09-11T02:28:39.689Z,63.08
2022-09-11T02:29:43.097Z,63.03
2022-09-11T02:30:45.534Z,63.12
2022-09-11T02:31:49.389Z,63.13
2022-09-11T02:32:55.101Z,62.97
2022-09-11T02:33:57.988Z,62.98
2022-09-11T02:35:00.953Z,63.39
2022-09-11T02:36:19.042Z,63.16
2022-09-11T02:38:06.614Z,62.99
2022-09-11T02:39:37.453Z,63.25
2022-09-11T02:40:53.159Z,62.98
2022-09-11T02:42:08.363Z,63.14
2022-09-11T02:43:25.033Z,62.99
2022-09-11T02:44:45.329Z,63.06
2022-09-11T02:46:05.767Z,62.92
2022-09-11T02:47:24.782Z,63.03
2022-09-11T02:48:49.439Z,62.90
2022-09-11T02:50:19.260Z,63.24
2022-09-11T02:51:32.972Z,63.17
2022-09-11T02:52:50.789Z,63.14
2022-09-11T02:53:56.112Z,63.12
2022-09-11T02:55:25.466Z,63.01
2022-09-11T02:56:30.754Z,62.97
2022-09-11T02:57:39.661Z,63.21
2022-09-11T02:59:20.720Z,63.06
2022-09-11T03:00:22.897Z,62.96
2022-09-11T03:01:25.650Z,63.33
2022-09-11T03:02:34.029Z,63.37
2022-09-11T03:03:40.478Z,63.38
2022-09-11T03:04:43.393Z,63.16
2022-09-11T03:05:45.590Z,63.47
2022-09-11T03:06:50.045Z,63.18
2022-09-11T03:07:52.951Z,63.50
2022-09-11T03:08:55.859Z,63.59
2022-09-11T03:09:58.766Z,63.33
2022-09-11T03:11:00.907Z,63.57
2022-09-11T03:12:04.592Z,63.32
2022-09-11T03:13:09.713Z,63.45
2022-09-11T03:14:12.470Z,63.51
2022-09-11T03:15:16.862Z,63.40
2022-09-11T03:16:20.673Z,63.42
2022-09-11T03:17:25.524Z,63.33
2022-09-11T03:18:27.702Z,63.26
2022-09-11T03:19:30.688Z,63.31
2022-09-11T03:20:34.277Z,63.59
2022-09-11T03:21:37.199Z,63.55
2022-09-11T03:22:39.851Z,63.50
2022-09-11T03:23:42.175Z,63.38
2022-09-11T03:24:45.174Z,63.58
2022-09-11T03:25:48.129Z,63.57
2022-09-11T03:26:50.386Z,63.37
2022-09-11T03:27:53.022Z,63.60
2022-09-11T03:28:55.960Z,63.67
2022-09-11T03:29:58.747Z,63.52
2022-09-11T03:31:01.037Z,63.49
2022-09-11T03:32:03.240Z,63.48
2022-09-11T03:33:05.484Z,63.32
2022-09-11T03:34:09.257Z,63.55
2022-09-11T03:35:11.522Z,63.62
2022-09-11T03:36:14.902Z,63.68
2022-09-11T03:37:18.254Z,63.54
2022-09-11T03:38:21.123Z,63.60
2022-09-11T03:39:23.380Z,63.51
2022-09-11T03:40:26.429Z,63.46
2022-09-11T03:41:28.644Z,63.65
2022-09-11T03:42:31.238Z,63.40
2022-09-11T03:43:33.698Z,63.38
2022-09-11T03:44:35.910Z,63.59
2022-09-11T03:45:39.100Z,63.49
2022-09-11T03:46:43.835Z,63.62
2022-09-11T03:47:45.971Z,63.60
2022-09-11T03:48:48.196Z,63.56
2022-09-11T03:49:50.422Z,63.67
2022-09-11T03:50:52.791Z,63.81
2022-09-11T03:51:56.189Z,63.62
2022-09-11T03:52:59.004Z,63.69
2022-09-11T03:54:03.866Z,63.93
2022-09-11T03:55:07.454Z,63.72
2022-09-11T03:56:10.073Z,63.70
2022-09-11T03:57:17.571Z,64.00
2022-09-11T03:58:19.802Z,63.92
2022-09-11T03:59:22.227Z,63.95
2022-09-11T04:00:29.738Z,64.19
2022-09-11T04:01:32.737Z,63.89
2022-09-11T04:02:37.454Z,63.96
2022-09-11T04:03:40.583Z,64.07
2022-09-11T04:04:44.763Z,63.94
2022-09-11T04:05:58.902Z,63.74
2022-09-11T04:07:01.041Z,63.84
2022-09-11T04:08:05.372Z,63.97
2022-09-11T04:09:09.149Z,64.00
2022-09-11T04:10:11.573Z,64.17
2022-09-11T04:11:14.406Z,64.15
2022-09-11T04:12:16.770Z,64.14
2022-09-11T04:13:18.965Z,64.20
2022-09-11T04:14:22.678Z,64.28
2022-09-11T04:15:25.930Z,64.13
2022-09-11T04:16:32.903Z,64.36
2022-09-11T04:17:35.622Z,64.48
2022-09-11T04:18:39.847Z,64.30
2022-09-11T04:19:42.346Z,64.41
2022-09-11T04:20:45.628Z,64.24
2022-09-11T04:21:47.955Z,64.33
2022-09-11T04:22:52.973Z,64.54
2022-09-11T04:23:56.651Z,64.52
2022-09-11T04:25:02.186Z,64.60
2022-09-11T04:26:16.868Z,64.57
2022-09-11T04:27:23.640Z,64.60
2022-09-11T04:28:28.925Z,64.73
2022-09-11T04:29:32.610Z,64.56
2022-09-11T04:30:39.545Z,64.58
2022-09-11T04:31:41.744Z,64.66
2022-09-11T04:32:46.357Z,64.83
2022-09-11T04:33:49.010Z,64.61
2022-09-11T04:34:51.419Z,64.78
2022-09-11T04:35:53.609Z,64.57
2022-09-11T04:36:56.323Z,65.04
2022-09-11T04:37:59.096Z,64.88
2022-09-11T04:39:01.430Z,64.83
2022-09-11T04:40:06.017Z,65.14
2022-09-11T04:41:10.601Z,64.90
2022-09-11T04:42:12.731Z,64.95
2022-09-11T04:43:17.826Z,65.14
2022-09-11T04:44:20.814Z,64.93
2022-09-11T04:45:23.891Z,65.31
2022-09-11T04:46:28.178Z,65.02
2022-09-11T04:47:30.379Z,65.04
2022-09-11T04:48:32.724Z,65.27
2022-09-11T04:49:35.332Z,65.10
2022-09-11T04:50:38.175Z,65.33
2022-09-11T04:51:50.100Z,65.29
2022-09-11T04:52:55.194Z,65.23
2022-09-11T04:53:59.237Z,65.15
2022-09-11T04:55:07.164Z,65.56
2022-09-11T04:56:15.069Z,65.38
2022-09-11T04:57:21.251Z,65.60
2022-09-11T04:58:23.478Z,65.38
2022-09-11T04:59:26.669Z,65.60
2022-09-11T05:00:41.141Z,65.63
2022-09-11T05:01:44.768Z,65.73
2022-09-11T05:02:48.178Z,65.63
2022-09-11T05:03:50.362Z,65.73
2022-09-11T05:04:52.511Z,65.33
2022-09-11T05:05:54.744Z,65.64
2022-09-11T05:06:56.874Z,65.65
2022-09-11T05:07:59.917Z,65.63
2022-09-11T05:09:04.858Z,65.72
2022-09-11T05:10:10.993Z,65.97
2022-09-11T05:11:15.462Z,65.73
2022-09-11T05:12:17.816Z,65.87
2022-09-11T05:13:20.040Z,65.83
2022-09-11T05:14:22.612Z,65.91
2022-09-11T05:15:26.523Z,66.25
2022-09-11T05:16:30.316Z,66.23
2022-09-11T05:17:34.317Z,66.39
2022-09-11T05:18:38.438Z,66.27
2022-09-11T05:19:40.874Z,66.13
2022-09-11T05:20:44.078Z,66.14
2022-09-11T05:21:48.247Z,65.99
2022-09-11T05:22:51.582Z,66.29
2022-09-11T05:23:55.879Z,66.34
2022-09-11T05:24:58.480Z,66.28
2022-09-11T05:26:05.213Z,66.04
2022-09-11T05:27:08.573Z,65.73
2022-09-11T05:28:11.860Z,65.94
2022-09-11T05:29:15.749Z,65.62
2022-09-11T05:30:23.178Z,65.33
2022-09-11T05:31:26.242Z,65.31
2022-09-11T05:32:28.991Z,65.30
2022-09-11T05:33:31.131Z,65.06
2022-09-11T05:34:34.622Z,65.29
2022-09-11T05:35:36.847Z,65.32
2022-09-11T05:36:39.024Z,65.25
2022-09-11T05:37:41.775Z,64.90
2022-09-11T05:38:45.355Z,65.00
2022-09-11T05:39:47.576Z,65.04
2022-09-11T05:40:52.118Z,64.99
2022-09-11T05:41:56.955Z,64.77
2022-09-11T05:43:03.745Z,64.86
2022-09-11T05:44:06.414Z,64.90
2022-09-11T05:45:09.656Z,64.78
2022-09-11T05:46:14.399Z,64.77
2022-09-11T05:47:16.524Z,64.48
2022-09-11T05:48:20.989Z,64.71
2022-09-11T05:49:25.667Z,64.39
2022-09-11T05:50:27.924Z,64.53
2022-09-11T05:51:30.125Z,64.35
2022-09-11T05:52:35.053Z,64.65
2022-09-11T05:53:38.202Z,64.43
2022-09-11T05:54:42.506Z,64.93
2022-09-11T05:55:46.013Z,64.63
2022-09-11T05:56:48.250Z,64.57
2022-09-11T05:57:57.945Z,64.66
2022-09-11T05:59:00.325Z,64.54
2022-09-11T06:00:09.284Z,64.53
2022-09-11T06:01:27.960Z,64.46
2022-09-11T06:02:42.107Z,64.42
2022-09-11T06:03:44.989Z,64.72
2022-09-11T06:04:48.901Z,64.41
2022-09-11T06:05:53.341Z,64.48
2022-09-11T06:06:55.618Z,64.65
2022-09-11T06:07:58.211Z,64.31
2022-09-11T06:09:00.523Z,64.36
2022-09-11T06:10:03.526Z,64.43
2022-09-11T06:11:07.782Z,64.06
2022-09-11T06:12:12.494Z,63.72
2022-09-11T06:13:19.005Z,63.84
2022-09-11T06:14:22.971Z,63.64
2022-09-11T06:15:45.664Z,63.28
2022-09-11T06:16:49.273Z,62.93
2022-09-11T06:17:51.846Z,63.12
2022-09-11T06:18:54.737Z,62.96
2022-09-11T06:19:57.168Z,62.74
2022-09-11T06:21:02.623Z,62.67
2022-09-11T06:22:11.807Z,62.47
2022-09-11T06:23:17.124Z,62.40
2022-09-11T06:24:19.692Z,62.15
2022-09-11T06:25:21.858Z,62.16
2022-09-11T06:26:26.614Z,62.15
2022-09-11T06:27:29.129Z,62.15
2022-09-11T06:28:31.579Z,62.05
2022-09-11T06:29:35.002Z,62.23
2022-09-11T06:30:37.816Z,62.09
2022-09-11T06:31:39.977Z,62.27
2022-09-11T06:32:42.375Z,61.89
2022-09-11T06:33:45.948Z,61.91
2022-09-11T06:34:48.220Z,62.02
2022-09-11T06:36:05.556Z,61.83
2022-09-11T06:37:07.934Z,61.89
2022-09-11T06:38:10.205Z,62.14
2022-09-11T06:39:12.390Z,61.76
2022-09-11T06:40:14.784Z,61.92
2022-09-11T06:41:18.041Z,61.80
2022-09-11T06:42:22.609Z,62.11
2022-09-11T06:43:25.807Z,61.71
2022-09-11T06:44:30.869Z,61.84
2022-09-11T06:45:35.742Z,62.06
2022-09-11T06:46:39.804Z,61.97
2022-09-11T06:47:44.937Z,62.17
2022-09-11T06:48:50.291Z,62.01
2022-09-11T06:49:57.980Z,62.00
2022-09-11T06:51:13.547Z,61.98
2022-09-11T06:52:15.734Z,62.19
2022-09-11T06:53:25.495Z,61.97
2022-09-11T06:54:29.504Z,62.06
2022-09-11T06:55:33.582Z,62.20
2022-09-11T06:56:42.193Z,61.99
2022-09-11T06:57:44.726Z,61.81
2022-09-11T06:58:51.961Z,61.94
2022-09-11T06:59:58.138Z,62.24
2022-09-11T07:01:08.696Z,62.30
2022-09-11T07:02:11.335Z,62.06
2022-09-11T07:03:15.223Z,62.32
2022-09-11T07:04:17.364Z,62.48
2022-09-11T07:05:20.150Z,62.29
2022-09-11T07:06:26.641Z,62.63
2022-09-11T07:07:34.083Z,62.54
2022-09-11T07:08:36.247Z,62.25
2022-09-11T07:09:40.635Z,62.43
2022-09-11T07:10:45.365Z,62.16
2022-09-11T07:11:47.628Z,62.06
2022-09-11T07:12:55.961Z,62.20
2022-09-11T07:13:59.115Z,61.92
2022-09-11T07:15:01.501Z,62.02
2022-09-11T07:16:08.949Z,61.96
2022-09-11T07:17:13.581Z,61.84
2022-09-11T07:18:19.284Z,62.08
2022-09-11T07:19:24.941Z,61.71
2022-09-11T07:20:27.229Z,62.01
2022-09-11T07:21:29.962Z,61.68
2022-09-11T07:22:36.376Z,61.76
2022-09-11T07:23:40.455Z,61.64
2022-09-11T07:24:42.709Z,61.45
2022-09-11T07:25:45.839Z,61.30
2022-09-11T07:26:48.336Z,61.75
2022-09-11T07:28:02.462Z,61.80
2022-09-11T07:29:05.236Z,61.63
2022-09-11T07:30:08.455Z,61.44
2022-09-11T07:31:20.725Z,60.67
2022-09-11T07:32:23.665Z,60.96
2022-09-11T07:33:27.640Z,60.22
2022-09-11T07:34:36.871Z,60.11
2022-09-11T07:35:42.819Z,60.01
2022-09-11T07:36:45.721Z,59.90
2022-09-11T07:37:50.852Z,59.79
2022-09-11T07:38:54.931Z,59.73
2022-09-11T07:39:58.933Z,59.47
2022-09-11T07:41:03.950Z,59.32
2022-09-11T07:42:09.445Z,59.40
2022-09-11T07:43:13.602Z,59.21
2022-09-11T07:44:18.976Z,59.28
2022-09-11T07:45:22.908Z,58.96
2022-09-11T07:46:26.963Z,59.25
2022-09-11T07:47:31.067Z,59.16
2022-09-11T07:48:33.329Z,58.91
2022-09-11T07:49:35.535Z,58.88
2022-09-11T07:50:39.223Z,58.49
2022-09-11T07:51:42.765Z,58.64
2022-09-11T07:52:47.013Z,58.19
2022-09-11T07:53:52.167Z,57.91
2022-09-11T07:54:54.975Z,58.25
2022-09-11T07:56:03.638Z,58.03
2022-09-11T07:57:06.029Z,57.86
2022-09-11T07:58:08.861Z,57.47
2022-09-11T07:59:12.793Z,57.53
2022-09-11T08:00:18.879Z,57.20
2022-09-11T08:01:27.148Z,57.28
2022-09-11T08:02:29.306Z,57.48
2022-09-11T08:03:35.922Z,57.33
2022-09-11T08:04:38.775Z,57.79
2022-09-11T08:05:41.074Z,57.71
2022-09-11T08:06:46.473Z,57.37
2022-09-11T08:08:03.127Z,57.13
2022-09-11T08:09:08.969Z,56.77
2022-09-11T08:10:27.227Z,56.68
2022-09-11T08:11:32.401Z,56.10
2022-09-11T08:12:34.779Z,56.02
2022-09-11T08:13:37.509Z,55.88
2022-09-11T08:14:39.836Z,55.99
2022-09-11T08:15:55.318Z,56.01
2022-09-11T08:16:57.618Z,56.44
2022-09-11T08:18:02.770Z,56.35
2022-09-11T08:19:06.357Z,56.85
2022-09-11T08:20:09.618Z,56.61
2022-09-11T08:21:15.936Z,57.04
2022-09-11T08:22:18.105Z,57.23
2022-09-11T08:23:22.617Z,57.24
2022-09-11T08:24:27.438Z,57.03
2022-09-11T08:25:38.849Z,57.20
2022-09-11T08:26:46.809Z,57.47
2022-09-11T08:27:55.026Z,57.59
2022-09-11T08:29:00.039Z,57.48
2022-09-11T08:30:06.247Z,57.94
2022-09-11T08:31:09.901Z,57.79
2022-09-11T08:32:13.656Z,57.73
2022-09-11T08:33:16.329Z,58.00
2022-09-11T08:34:21.848Z,58.19
2022-09-11T08:35:24.339Z,58.03
2022-09-11T08:36:27.691Z,58.05
2022-09-11T08:37:31.663Z,58.24
2022-09-11T08:38:34.789Z,58.47
2022-09-11T08:39:37.043Z,58.49
2022-09-11T08:40:41.881Z,58.52
2022-09-11T08:41:56.567Z,58.78
2022-09-11T08:43:03.151Z,58.79
2022-09-11T08:44:05.410Z,58.65
2022-09-11T08:45:12.682Z,59.04
2022-09-11T08:46:23.977Z,58.86
2022-09-11T08:47:31.669Z,59.24
2022-09-11T08:49:14.367Z,59.18
2022-09-11T08:50:23.631Z,59.54
2022-09-11T08:51:26.799Z,59.50
2022-09-11T08:52:29.199Z,59.54
2022-09-11T08:53:33.481Z,59.75
2022-09-11T08:54:38.293Z,59.78
2022-09-11T08:55:49.338Z,60.08
2022-09-11T08:57:01.169Z,59.94
2022-09-11T08:58:25.105Z,59.80
2022-09-11T09:00:05.676Z,60.13
2022-09-11T09:01:58.893Z,60.07
2022-09-11T09:03:17.529Z,60.17
2022-09-11T09:04:35.497Z,60.48
2022-09-11T09:06:01.678Z,60.66
2022-09-11T09:07:20.227Z,60.38
2022-09-11T09:08:44.938Z,60.58
2022-09-11T09:10:16.321Z,60.46
2022-09-11T09:11:31.073Z,60.58
2022-09-11T09:13:03.860Z,60.69
2022-09-11T09:14:12.537Z,60.81
2022-09-11T09:15:33.448Z,60.92
2022-09-11T09:16:56.671Z,61.16
2022-09-11T09:18:12.648Z,61.35
2022-09-11T09:19:35.427Z,61.20
2022-09-11T09:20:47.217Z,61.24
2022-09-11T09:22:08.769Z,61.36
2022-09-11T09:23:21.108Z,61.49
2022-09-11T09:24:24.298Z,61.44
2022-09-11T09:25:29.121Z,61.37
2022-09-11T09:26:40.093Z,61.56
2022-09-11T09:27:49.489Z,61.40
2022-09-11T09:28:59.831Z,61.44
2022-09-11T09:30:13.514Z,61.28
2022-09-11T09:31:21.018Z,61.17
2022-09-11T09:32:32.357Z,61.01
2022-09-11T09:33:41.139Z,61.06
2022-09-11T09:34:50.753Z,61.32
2022-09-11T09:35:54.608Z,61.34
2022-09-11T09:37:05.027Z,61.02
2022-09-11T09:38:31.564Z,60.87
2022-09-11T09:39:36.727Z,60.82
2022-09-11T09:40:55.333Z,61.23
2022-09-11T09:42:13.416Z,61.26
2022-09-11T09:43:42.786Z,61.27
2022-09-11T09:44:51.109Z,61.30
2022-09-11T09:46:09.184Z,61.53
2022-09-11T09:47:15.428Z,61.49
2022-09-11T09:48:17.942Z,61.89
2022-09-11T09:49:26.103Z,61.96
2022-09-11T09:50:32.348Z,61.62
2022-09-11T09:51:35.492Z,61.79
2022-09-11T09:52:37.801Z,61.89
2022-09-11T09:53:46.282Z,61.75
2022-09-11T09:55:01.979Z,61.32
2022-09-11T09:56:06.165Z,61.19
2022-09-11T09:57:10.738Z,61.05
2022-09-11T09:58:13.387Z,61.07
2022-09-11T09:59:21.734Z,61.21
2022-09-11T10:00:27.063Z,61.44
2022-09-11T10:01:48.545Z,61.09
2022-09-11T10:02:54.858Z,61.24
2022-09-11T10:04:11.092Z,61.13
2022-09-11T10:05:13.731Z,60.44
2022-09-11T10:06:22.113Z,60.45
2022-09-11T10:07:27.476Z,60.01
2022-09-11T10:08:37.924Z,60.04
2022-09-11T10:09:49.504Z,60.29
2022-09-11T10:10:58.109Z,59.77
2022-09-11T10:12:12.851Z,59.71
2022-09-11T10:13:25.194Z,60.09
2022-09-11T10:14:50.380Z,60.01
2022-09-11T10:15:53.370Z,59.72
2022-09-11T10:16:55.591Z,59.64
2022-09-11T10:18:30.428Z,60.04
2022-09-11T10:19:40.575Z,60.17
2022-09-11T10:20:42.723Z,59.88
2022-09-11T10:21:44.867Z,59.95
2022-09-11T10:22:47.009Z,60.00
2022-09-11T10:23:55.020Z,59.87
2022-09-11T10:25:00.737Z,60.00
2022-09-11T10:26:05.544Z,59.88
2022-09-11T10:27:12.728Z,60.02
2022-09-11T10:28:19.526Z,59.80
2022-09-11T10:29:30.214Z,59.97
2022-09-11T10:30:36.494Z,59.78
2022-09-11T10:31:41.224Z,59.89
2022-09-11T10:32:43.436Z,59.83
2022-09-11T10:34:05.636Z,59.80
2022-09-11T10:35:11.019Z,59.74
2022-09-11T10:36:15.641Z,59.97
2022-09-11T10:37:25.395Z,60.17
2022-09-11T10:38:45.885Z,60.28
2022-09-11T10:39:49.572Z,60.36
2022-09-11T10:41:15.411Z,60.50
2022-09-11T10:42:29.458Z,60.52
2022-09-11T10:43:47.740Z,60.38
2022-09-11T10:44:52.076Z,60.38
2022-09-11T10:46:25.698Z,60.27
2022-09-11T10:47:29.956Z,60.04
2022-09-11T10:48:33.075Z,60.12
2022-09-11T10:49:35.712Z,60.38
2022-09-11T10:50:40.955Z,59.97
2022-09-11T10:51:58.711Z,59.90
2022-09-11T10:53:17.951Z,59.99
2022-09-11T10:54:34.991Z,60.20
2022-09-11T10:55:49.416Z,60.12
2022-09-11T10:57:13.449Z,59.99
2022-09-11T10:58:22.122Z,59.88
2022-09-11T10:59:34.937Z,59.82
2022-09-11T11:00:38.828Z,59.69
2022-09-11T11:01:41.170Z,59.87
2022-09-11T11:02:46.365Z,59.63
2022-09-11T11:03:48.892Z,59.68
2022-09-11T11:04:54.138Z,59.70
2022-09-11T11:06:23.820Z,59.59
2022-09-11T11:08:04.895Z,59.61
2022-09-11T11:09:39.470Z,59.77
2022-09-11T11:11:03.917Z,59.46
2022-09-11T11:12:32.879Z,59.43
2022-09-11T11:13:57.015Z,59.57
2022-09-11T11:15:01.900Z,59.45
2022-09-11T11:16:18.237Z,59.45
2022-09-11T11:17:58.620Z,59.54
2022-09-11T11:19:07.144Z,59.43
2022-09-11T11:20:47.391Z,59.46
2022-09-11T11:22:15.887Z,59.80
2022-09-11T11:23:36.064Z,59.95
2022-09-11T11:25:02.877Z,59.80
2022-09-11T11:26:31.875Z,59.95
2022-09-11T11:27:33.975Z,60.01
2022-09-11T11:28:54.812Z,59.97
2022-09-11T11:30:21.836Z,59.92
2022-09-11T11:31:36.487Z,60.33
2022-09-11T11:33:03.427Z,60.06
2022-09-11T11:34:15.625Z,60.20
2022-09-11T11:35:47.438Z,60.57
2022-09-11T11:37:10.197Z,60.38
2022-09-11T11:38:25.541Z,60.37
2022-09-11T11:39:33.451Z,60.72
2022-09-11T11:40:46.324Z,60.57
2022-09-11T11:42:13.113Z,60.67
2022-09-11T11:43:21.327Z,60.88
2022-09-11T11:44:34.560Z,60.69
2022-09-11T11:46:10.834Z,60.96
2022-09-11T11:47:16.084Z,60.73
2022-09-11T11:48:20.932Z,61.00
2022-09-11T11:49:37.109Z,60.75
2022-09-11T11:50:46.330Z,60.80
2022-09-11T11:52:00.669Z,61.24
2022-09-11T11:53:12.548Z,61.00
2022-09-11T11:54:14.804Z,61.09
2022-09-11T11:55:25.002Z,61.24
2022-09-11T11:56:42.903Z,61.11
2022-09-11T11:57:54.270Z,61.15
2022-09-11T11:59:16.369Z,61.13
2022-09-11T12:00:19.375Z,60.79
2022-09-11T12:01:29.740Z,60.92
2022-09-11T12:02:41.376Z,60.73
2022-09-11T12:04:05.047Z,60.97
2022-09-11T12:05:13.379Z,60.87
2022-09-11T12:06:15.632Z,61.00
2022-09-11T12:07:29.280Z,61.02
2022-09-11T12:08:31.460Z,60.90
2022-09-11T12:09:34.174Z,60.84
2022-09-11T12:10:39.012Z,60.74
2022-09-11T12:11:41.451Z,60.51
2022-09-11T12:12:47.883Z,60.71
2022-09-11T12:13:50.119Z,60.64
2022-09-11T12:14:56.016Z,60.94
2022-09-11T12:16:17.411Z,60.87
2022-09-11T12:17:24.924Z,60.67
2022-09-11T12:18:27.145Z,60.82
2022-09-11T12:19:29.355Z,60.74
2022-09-11T12:20:39.256Z,60.80
2022-09-11T12:21:54.839Z,60.53
2022-09-11T12:23:00.934Z,60.82
2022-09-11T12:24:03.062Z,60.55
2022-09-11T12:25:35.544Z,60.92
2022-09-11T12:26:37.680Z,60.96
2022-09-11T12:27:39.763Z,61.05
2022-09-11T12:28:45.289Z,60.88
2022-09-11T12:29:57.111Z,61.03
2022-09-11T12:31:05.170Z,61.01
2022-09-11T12:32:13.470Z,61.39
2022-09-11T12:33:51.671Z,61.40
2022-09-11T12:35:02.615Z,61.22
2022-09-11T12:36:07.864Z,61.38
2022-09-11T12:37:22.925Z,61.66
2022-09-11T12:38:28.144Z,61.58
2022-09-11T12:39:34.617Z,61.67
2022-09-11T12:40:48.769Z,61.83
2022-09-11T12:42:14.129Z,61.96
2022-09-11T12:43:20.533Z,62.24
2022-09-11T12:44:56.527Z,62.13
2022-09-11T12:45:58.949Z,62.32
2022-09-11T12:47:01.223Z,62.39
2022-09-11T12:48:07.806Z,62.46
2022-09-11T12:49:22.866Z,62.22
2022-09-11T12:50:28.370Z,62.64
2022-09-11T12:51:38.267Z,62.63
2022-09-11T12:52:51.048Z,62.68
2022-09-11T12:54:00.291Z,62.95
2022-09-11T12:55:10.513Z,63.18
2022-09-11T12:56:26.115Z,63.06
2022-09-11T12:57:35.289Z,63.08
2022-09-11T12:58:44.080Z,63.19
2022-09-11T12:59:53.355Z,63.69
2022-09-11T13:01:15.230Z,63.34
2022-09-11T13:02:40.035Z,63.64
2022-09-11T13:03:58.588Z,63.37
2022-09-11T13:05:02.381Z,63.23
2022-09-11T13:06:09.317Z,63.62
2022-09-11T13:07:27.736Z,63.50
2022-09-11T13:08:35.032Z,63.48
2022-09-11T13:09:46.593Z,63.03
2022-09-11T13:10:48.967Z,63.16
2022-09-11T13:12:17.333Z,63.08
2022-09-11T13:13:35.362Z,62.78
2022-09-11T13:14:37.875Z,63.05
2022-09-11T13:15:43.668Z,63.12
2022-09-11T13:16:46.133Z,62.90
2022-09-11T13:17:48.323Z,62.81
2022-09-11T13:18:50.550Z,62.73
2022-09-11T13:20:12.900Z,62.21
2022-09-11T13:21:20.236Z,62.20
2022-09-11T13:22:27.772Z,61.96
2022-09-11T13:23:33.236Z,61.69
2022-09-11T13:24:35.393Z,61.42
2022-09-11T13:25:40.850Z,61.40
2022-09-11T13:26:46.130Z,61.49
2022-09-11T13:27:50.109Z,61.14
2022-09-11T13:28:55.416Z,61.21
2022-09-11T13:30:01.418Z,60.99
2022-09-11T13:31:05.134Z,60.53
2022-09-11T13:32:13.496Z,60.51
2022-09-11T13:33:24.051Z,60.18
2022-09-11T13:34:28.497Z,60.23
2022-09-11T13:35:37.524Z,59.50
2022-09-11T13:36:40.612Z,59.34
2022-09-11T13:38:06.122Z,59.24
2022-09-11T13:39:12.190Z,59.13
2022-09-11T13:40:47.009Z,58.93
2022-09-11T13:42:08.763Z,58.73
2022-09-11T13:43:20.844Z,58.43
2022-09-11T13:44:47.214Z,58.50
2022-09-11T13:45:49.588Z,58.32
2022-09-11T13:46:52.530Z,57.87
2022-09-11T13:47:55.180Z,57.79
2022-09-11T13:49:17.536Z,57.78
2022-09-11T13:50:20.999Z,57.46
2022-09-11T13:51:27.910Z,57.33
2022-09-11T13:52:33.985Z,57.66
2022-09-11T13:53:36.230Z,57.23
2022-09-11T13:54:45.655Z,57.11
2022-09-11T13:55:54.054Z,56.93
2022-09-11T13:56:56.159Z,56.49
2022-09-11T13:58:00.850Z,56.28
2022-09-11T13:59:25.414Z,56.42
2022-09-11T14:00:38.438Z,56.06
2022-09-11T14:01:56.002Z,56.09
2022-09-11T14:03:00.151Z,56.02
2022-09-11T14:04:04.536Z,56.31
2022-09-11T14:05:06.616Z,56.16
2022-09-11T14:06:15.062Z,56.08
2022-09-11T14:07:22.020Z,55.82
2022-09-11T14:08:34.870Z,55.69
2022-09-11T14:09:37.339Z,56.09
2022-09-11T14:10:42.564Z,55.60
2022-09-11T14:11:45.020Z,55.74
2022-09-11T14:12:53.263Z,55.82
2022-09-11T14:14:07.160Z,56.09
2022-09-11T14:15:22.496Z,56.05
2022-09-11T14:16:32.404Z,55.91
2022-09-11T14:17:34.761Z,55.25
2022-09-11T14:18:49.208Z,55.16
2022-09-11T14:19:56.635Z,54.77
2022-09-11T14:21:06.372Z,54.73
2022-09-11T14:22:26.567Z,54.78
2022-09-11T14:23:29.781Z,54.86
2022-09-11T14:24:32.877Z,54.60
2022-09-11T14:25:35.742Z,54.78
2022-09-11T14:26:42.375Z,55.14
2022-09-11T14:27:45.279Z,54.12
2022-09-11T14:28:58.126Z,53.92
2022-09-11T14:30:02.737Z,53.81
2022-09-11T14:31:07.900Z,54.20
2022-09-11T14:32:33.940Z,54.16
2022-09-11T14:33:36.315Z,54.16
2022-09-11T14:34:38.464Z,53.85
2022-09-11T14:35:41.261Z,53.95
2022-09-11T14:36:48.013Z,53.82
2022-09-11T14:37:51.218Z,53.24
2022-09-11T14:38:54.302Z,53.46
2022-09-11T14:40:00.231Z,53.23
2022-09-11T14:41:06.110Z,53.20
2022-09-11T14:42:29.826Z,53.49